Anton Chico, New Mexico
Current Conditions -  °F | °C
As of 7:53 AM on Saturday 22 Nov 2014 (Local Time) from KLVS Reporting Station
Clear Clear  
Wind Chill:   Ceiling: Unl
Heat Index:   Visibility: 10mi
Dew Point: -7°   Wind: 3mph
Humidity: 47%   Direction: 360°N
Pressure: 30.02"   Gusts: NA
Location:  35.2°N, 105.14°W
Report Text: KLVS 221453Z AUTO 36003KT 10SM CLR 03/M07 A3002 RMK AO2 SLP138 T00331072 56001
Loading
Personal Weather Stations






























Interactive Weather Map New forecast layout! Learn more

10-Day Weather Forecast

Advertisements
Track Severe Weather on mobile